Time;durP1;ratioP1;P1;durP2;ratioP2;P2;SDS_P1;SDS_P2;PMS_P1;PMS_P2;Temp;Humidity;BMP_temperature;BMP_pressure;BME280_temperature;BME280_humidity;BME280_pressure;Samples;Min_cycle;Max_cycle;Signal;HPM_P1;HPM_P2
2022/04/27 00:01:51;;;;;;;4.50;2.38;;;;;;;;;;5033726;28;20049;-72
2022/04/27 00:04:17;;;;;;;3.03;2.13;;;15.50;56.60;;;;;;5033870;28;20132;-72
2022/04/27 00:06:44;;;;;;;3.50;2.60;;;15.70;56.40;;;;;;5016411;28;20479;-72
2022/04/27 00:09:11;;;;;;;2.63;2.08;;;15.50;55.60;;;;;;5016305;28;20136;-72
2022/04/27 00:11:38;;;;;;;3.53;2.30;;;15.50;56.60;;;;;;5016140;28;20054;-72
2022/04/27 00:14:06;;;;;;;3.03;2.20;;;15.50;52.50;;;;;;5015287;28;20053;-72
2022/04/27 00:16:33;;;;;;;2.83;2.45;;;15.10;51.10;;;;;;5033424;28;20397;-72
2022/04/27 00:18:59;;;;;;;3.03;2.15;;;15.30;56.20;;;;;;5016218;28;20053;-72
2022/04/27 00:21:26;;;;;;;3.08;2.50;;;15.50;56.30;;;;;;5015880;28;20050;-72
2022/04/27 00:23:53;;;;;;;2.83;2.17;;;15.50;56.60;;;;;;5015946;28;20132;-72
2022/04/27 00:26:19;;;;;;;3.25;2.13;;;15.30;56.40;;;;;;5015784;28;20052;-72
2022/04/27 00:28:46;;;;;;;4.05;2.55;;;15.40;56.50;;;;;;5015652;28;20050;-73
2022/04/27 00:31:14;;;;;;;2.67;1.95;;;15.40;49.70;;;;;;5015667;28;20405;-72
2022/04/27 00:33:41;;;;;;;3.13;2.13;;;15.40;56.40;;;;;;5016001;28;20057;-72
2022/04/27 00:36:07;;;;;;;2.75;2.17;;;15.50;54.10;;;;;;5016000;28;20052;-72
2022/04/27 00:38:34;;;;;;;3.55;2.40;;;15.00;56.30;;;;;;5016058;28;20508;-72
2022/04/27 00:41:01;;;;;;;3.60;2.40;;;15.40;56.50;;;;;;5015538;28;20206;-72
2022/04/27 00:43:37;;;;;;;2.78;2.00;;;15.50;50.40;;;;;;5033411;28;20052;-72
2022/04/27 00:46:04;;;;;;;3.10;2.25;;;15.50;56.30;;;;;;5015324;28;20060;-72
2022/04/27 00:48:32;;;;;;;2.95;2.30;;;15.30;56.20;;;;;;5015518;28;20068;-72
2022/04/27 00:51:00;;;;;;;2.70;2.25;;;15.30;56.50;;;;;;5015242;28;20053;-72
2022/04/27 00:53:27;;;;;;;3.42;2.05;;;15.00;56.20;;;;;;5033383;28;20049;-72
2022/04/27 00:55:54;;;;;;;2.20;2.00;;;;;;;;;;5033012;28;20049;-72
2022/04/27 00:58:21;;;;;;;3.88;2.40;;;15.40;56.30;;;;;;5015600;28;20473;-72
2022/04/27 01:00:48;;;;;;;3.58;2.30;;;15.00;56.30;;;;;;5014863;28;20057;-72
2022/04/27 01:03:14;;;;;;;2.67;2.20;;;15.30;56.50;;;;;;5015219;28;20055;-72
2022/04/27 01:05:42;;;;;;;2.95;2.13;;;15.30;56.40;;;;;;5032689;28;20064;-72
2022/04/27 01:08:09;;;;;;;3.08;2.13;;;15.40;56.30;;;;;;5015595;28;20076;-72
2022/04/27 01:10:36;;;;;;;2.75;2.10;;;;;;;;;;5015028;28;20397;-72
2022/04/27 01:13:03;;;;;;;3.05;2.15;;;15.30;56.30;;;;;;5015368;28;20483;-73
2022/04/27 01:15:32;;;;;;;3.05;2.33;;;14.90;56.30;;;;;;5015516;28;20084;-72
2022/04/27 01:17:59;;;;;;;2.47;2.05;;;;;;;;;;5014471;28;20056;-72
2022/04/27 01:20:30;;;;;;;3.30;1.90;;;15.30;56.30;;;;;;5015113;28;20063;-72
2022/04/27 01:22:57;;;;;;;2.70;2.03;;;15.30;56.30;;;;;;5015303;28;20053;-72
2022/04/27 01:25:24;;;;;;;2.55;2.00;;;15.30;56.60;;;;;;5015181;28;20061;-72
2022/04/27 01:27:50;;;;;;;2.40;2.03;;;15.10;51.30;;;;;;5015002;28;20179;-72
2022/04/27 01:30:17;;;;;;;2.42;2.00;;;15.30;56.40;;;;;;5014789;28;20055;-72
2022/04/27 01:32:44;;;;;;;2.85;2.00;;;15.30;56.50;;;;;;5032610;28;20457;-72
2022/04/27 01:35:11;;;;;;;3.15;1.92;;;15.30;53.30;;;;;;5014791;28;20053;-72
2022/04/27 01:40:25;;;;;;;2.35;1.80;;;;;;;;;;5015091;28;20057;-72
2022/04/27 01:42:51;;;;;;;2.63;2.10;;;15.60;56.40;;;;;;5032342;28;20053;-72
2022/04/27 01:45:18;;;;;;;2.88;1.85;;;15.40;56.30;;;;;;5032304;28;20049;-72
2022/04/27 01:47:45;;;;;;;2.50;2.10;;;15.30;56.50;;;;;;5032263;28;20049;-72
2022/04/27 01:50:12;;;;;;;3.45;2.17;;;14.80;56.30;;;;;;5031912;28;20105;-72
2022/04/27 01:55:24;;;;;;;2.55;2.10;;;15.00;56.40;;;;;;5014528;28;20049;-72
2022/04/27 01:57:53;;;;;;;2.60;2.08;;;;;;;;;;5031902;28;20055;-71
2022/04/27 02:00:20;;;;;;;3.38;2.60;;;16.10;54.10;;;;;;5014509;28;20057;-72
2022/04/27 02:02:47;;;;;;;2.17;1.92;;;15.40;56.10;;;;;;5014684;28;20083;-72
2022/04/27 02:05:14;;;;;;;3.35;2.00;;;14.70;56.00;;;;;;5014696;28;20085;-72
2022/04/27 02:07:43;;;;;;;3.10;2.10;;;15.30;56.30;;;;;;5014512;28;20053;-72
2022/04/27 02:10:09;;;;;;;2.97;2.00;;;15.30;56.30;;;;;;5031951;28;20499;-72
2022/04/27 02:12:36;;;;;;;2.60;1.95;;;15.30;55.80;;;;;;5014329;28;20049;-72
2022/04/27 02:15:03;;;;;;;2.22;1.85;;;15.50;56.30;;;;;;5014065;28;20454;-72
2022/04/27 02:17:30;;;;;;;2.92;1.88;;;15.40;50.90;;;;;;5015449;28;20503;-72
2022/04/27 02:19:57;;;;;;;2.47;2.00;;;15.40;56.20;;;;;;5018195;28;20512;-72
2022/04/27 02:22:25;;;;;;;2.50;2.00;;;;;;;;;;5018098;28;20060;-72
2022/04/27 02:24:54;;;;;;;2.50;2.03;;;15.40;51.80;;;;;;5018187;28;20084;-73
2022/04/27 02:27:21;;;;;;;2.70;1.90;;;14.90;55.60;;;;;;5018127;28;20050;-73
2022/04/27 02:29:47;;;;;;;2.28;2.00;;;15.40;56.20;;;;;;5018065;28;20054;-73
2022/04/27 02:32:15;;;;;;;2.55;2.00;;;;;;;;;;5017888;28;20103;-73
2022/04/27 02:34:42;;;;;;;3.80;2.00;;;15.40;56.10;;;;;;5035567;28;20053;-73
2022/04/27 02:37:08;;;;;;;2.47;2.20;;;15.10;55.30;;;;;;5017838;28;20050;-73
2022/04/27 02:39:35;;;;;;;3.42;2.30;;;14.80;55.50;;;;;;5017486;28;20058;-73
2022/04/27 02:42:05;;;;;;;3.22;2.05;;;15.40;49.20;;;;;;5017995;28;20502;-73
2022/04/27 02:44:32;;;;;;;2.70;2.22;;;15.50;55.90;;;;;;5017533;28;20107;-73
2022/04/27 02:46:59;;;;;;;3.75;2.08;;;;;;;;;;5017680;28;20053;-73
2022/04/27 02:52:09;;;;;;;2.58;2.17;;;15.50;56.10;;;;;;5017628;28;20049;-73
2022/04/27 02:54:36;;;;;;;2.92;2.13;;;15.60;56.10;;;;;;5017590;28;20050;-73
2022/04/27 02:57:04;;;;;;;2.40;2.20;;;15.30;55.60;;;;;;5033610;28;20049;-73
2022/04/27 02:59:31;;;;;;;2.25;1.98;;;15.50;56.10;;;;;;5034995;28;20048;-73
2022/04/27 03:01:58;;;;;;;5.20;2.15;;;15.40;55.70;;;;;;5017116;28;20059;-73
2022/04/27 03:04:24;;;;;;;2.53;2.20;;;15.40;55.70;;;;;;5017642;28;20537;-73
2022/04/27 03:06:54;;;;;;;3.63;2.10;;;15.20;55.50;;;;;;5035157;28;20048;-73
2022/04/27 03:09:22;;;;;;;2.80;2.25;;;;;;;;;;5017325;28;20485;-73
2022/04/27 03:11:49;;;;;;;3.75;2.35;;;;;;;;;;5016674;28;20064;-73
2022/04/27 03:14:19;;;;;;;3.28;2.30;;;15.50;55.60;;;;;;5017500;28;20053;-73
2022/04/27 03:16:46;;;;;;;2.92;2.17;;;15.40;55.90;;;;;;5017326;28;20136;-72
2022/04/27 03:19:13;;;;;;;3.38;2.20;;;15.50;56.20;;;;;;5034743;28;20053;-72
2022/04/27 03:21:40;;;;;;;2.78;2.25;;;15.50;54.30;;;;;;5034921;28;20128;-72
2022/04/27 03:24:06;;;;;;;3.15;2.15;;;16.00;56.20;;;;;;5034471;28;20045;-73
2022/04/27 03:26:33;;;;;;;2.38;1.85;;;15.50;55.80;;;;;;5016587;28;20053;-73
2022/04/27 03:29:00;;;;;;;2.92;2.35;;;15.40;53.40;;;;;;5016958;28;20049;-72
2022/04/27 03:31:28;;;;;;;2.55;2.20;;;16.00;55.90;;;;;;5016974;28;20080;-72
2022/04/27 03:33:55;;;;;;;2.95;2.10;;;14.90;55.60;;;;;;5017133;28;20053;-72
2022/04/27 03:36:22;;;;;;;2.78;2.25;;;15.50;50.30;;;;;;5016743;28;20061;-72
2022/04/27 03:38:49;;;;;;;3.05;2.17;;;15.50;55.90;;;;;;5016647;28;20056;-72
2022/04/27 03:41:19;;;;;;;3.38;2.33;;;;;;;;;;5016572;28;20136;-72
2022/04/27 03:43:46;;;;;;;2.78;2.30;;;;;;;;;;5016713;28;20132;-72
2022/04/27 03:46:13;;;;;;;2.65;2.20;;;15.60;56.00;;;;;;5016424;28;20056;-72
2022/04/27 03:48:41;;;;;;;2.72;2.08;;;15.50;49.10;;;;;;5016636;28;20058;-72
2022/04/27 03:51:08;;;;;;;2.38;2.00;;;15.50;55.60;;;;;;5016219;28;20057;-72
2022/04/27 03:53:34;;;;;;;3.08;2.30;;;15.50;52.60;;;;;;5016655;28;20057;-72
2022/04/27 03:56:01;;;;;;;2.65;2.03;;;15.50;55.90;;;;;;5016448;28;20060;-72
2022/04/27 03:58:28;;;;;;;2.63;2.03;;;15.80;55.70;;;;;;5034176;28;20049;-72
2022/04/27 04:00:55;;;;;;;3.47;2.00;;;14.90;53.40;;;;;;5033392;28;20458;-72
2022/04/27 04:03:21;;;;;;;2.60;2.00;;;15.40;55.50;;;;;;5016136;28;20057;-72
2022/04/27 04:05:49;;;;;;;2.67;2.10;;;15.50;55.80;;;;;;5016313;28;20057;-72
2022/04/27 04:08:16;;;;;;;2.47;2.10;;;15.60;55.70;;;;;;5016344;28;20393;-72
2022/04/27 04:10:44;;;;;;;2.40;2.00;;;15.50;50.10;;;;;;5015839;28;20053;-72
2022/04/27 04:13:10;;;;;;;3.42;2.20;;;15.50;55.80;;;;;;5016424;28;20131;-72
2022/04/27 04:15:38;;;;;;;2.50;1.90;;;15.30;55.70;;;;;;5015750;28;20051;-72
2022/04/27 04:18:04;;;;;;;2.78;2.10;;;15.10;55.20;;;;;;5015814;28;20570;-73
2022/04/27 04:20:31;;;;;;;2.60;1.90;;;15.40;55.40;;;;;;5015515;28;20056;-72
2022/04/27 04:22:59;;;;;;;2.63;2.00;;;16.10;55.90;;;;;;5016172;28;20055;-72
2022/04/27 04:30:54;;;;;;;2.80;2.20;;;15.50;55.60;;;;;;5015655;28;20045;-72
2022/04/27 04:33:21;;;;;;;2.50;2.20;;;;;;;;;;5015492;28;20425;-72
2022/04/27 04:35:48;;;;;;;3.67;2.10;;;15.30;55.70;;;;;;5015815;28;20406;-72
2022/04/27 04:38:17;;;;;;;3.40;2.13;;;15.50;55.80;;;;;;5015638;28;20053;-72
2022/04/27 04:40:44;;;;;;;2.83;2.13;;;;;;;;;;5032374;28;20045;-72
2022/04/27 04:43:10;;;;;;;3.33;2.05;;;15.50;55.80;;;;;;5033616;28;20053;-72
2022/04/27 04:45:38;;;;;;;3.00;2.40;;;15.40;55.40;;;;;;5015204;28;20059;-73
2022/04/27 04:48:05;;;;;;;3.70;2.20;;;15.30;55.30;;;;;;5015457;28;20044;-72
2022/04/27 04:50:32;;;;;;;4.07;2.20;;;15.50;55.80;;;;;;5015527;28;20451;-72
2022/04/27 04:52:58;;;;;;;3.35;2.22;;;15.60;55.60;;;;;;5015410;28;20083;-73
2022/04/27 04:55:27;;;;;;;2.67;2.20;;;15.60;55.50;;;;;;5015258;28;20479;-73
2022/04/27 04:57:53;;;;;;;2.92;1.90;;;15.20;55.40;;;;;;5032878;28;20053;-72
2022/04/27 05:00:20;;;;;;;2.97;2.00;;;15.50;50.00;;;;;;5015145;28;20055;-72
2022/04/27 05:02:47;;;;;;;2.45;1.83;;;15.30;55.60;;;;;;5015329;28;20049;-72
2022/04/27 05:05:13;;;;;;;2.30;1.90;;;15.30;55.50;;;;;;5014781;28;20141;-72
2022/04/27 05:07:40;;;;;;;4.40;2.67;;;15.50;50.90;;;;;;4998733;28;20059;-72
2022/04/27 05:10:07;;;;;;;2.67;1.90;;;15.50;55.50;;;;;;5015057;28;20049;-72
2022/04/27 05:12:37;;;;;;;2.95;2.03;;;15.50;48.90;;;;;;5014939;28;20128;-72
2022/04/27 05:15:04;;;;;;;3.42;2.20;;;15.50;55.50;;;;;;5015098;28;20053;-72
2022/04/27 05:17:30;;;;;;;2.40;2.13;;;15.10;53.80;;;;;;5014901;28;20065;-73
2022/04/27 05:19:57;;;;;;;2.72;2.10;;;15.50;55.40;;;;;;5014835;28;20063;-73
2022/04/27 05:22:24;;;;;;;2.30;2.00;;;15.60;55.70;;;;;;5014680;28;20055;-73
2022/04/27 05:24:50;;;;;;;2.92;2.03;;;15.50;50.40;;;;;;5014953;28;20421;-73
2022/04/27 05:27:18;;;;;;;2.53;2.08;;;15.40;55.60;;;;;;5032149;28;20052;-72
2022/04/27 05:32:32;;;;;;;3.13;2.10;;;;;;;;;;5014635;28;20049;-72
2022/04/27 05:34:58;;;;;;;3.25;2.20;;;14.90;55.10;;;;;;5014569;28;20053;-71
2022/04/27 05:37:25;;;;;;;2.15;1.80;;;15.50;51.40;;;;;;5014264;28;20053;-72
2022/04/27 05:39:52;;;;;;;2.80;2.10;;;15.60;55.50;;;;;;5014319;28;20504;-72
2022/04/27 05:42:18;;;;;;;4.07;2.33;;;15.10;55.30;;;;;;5014295;28;20053;-72
2022/04/27 05:44:46;;;;;;;2.20;2.00;;;15.60;51.40;;;;;;5014672;28;20063;-72
2022/04/27 05:47:13;;;;;;;2.60;2.13;;;15.50;50.40;;;;;;5014597;28;20409;-72
2022/04/27 05:49:40;;;;;;;2.85;2.10;;;15.50;55.40;;;;;;5013920;28;20045;-72
2022/04/27 05:52:07;;;;;;;3.30;2.22;;;15.70;50.40;;;;;;5013579;28;20057;-72
2022/04/27 05:54:34;;;;;;;2.90;2.10;;;15.60;55.50;;;;;;5014442;28;20136;-72
2022/04/27 05:57:01;;;;;;;2.13;1.80;;;15.60;55.80;;;;;;5014511;28;20060;-72
2022/04/27 05:59:28;;;;;;;2.45;2.00;;;;;;;;;;5014047;28;20110;-72
2022/04/27 06:01:56;;;;;;;2.72;1.98;;;15.40;55.60;;;;;;5014501;28;20045;-71
2022/04/27 06:04:22;;;;;;;2.30;1.80;;;15.60;55.70;;;;;;5014233;28;20057;-72
2022/04/27 06:06:49;;;;;;;2.72;1.98;;;15.40;55.30;;;;;;5014378;28;20133;-71
2022/04/27 06:09:16;;;;;;;1.90;1.70;;;15.10;55.40;;;;;;5014479;28;20055;-72
2022/04/27 06:11:43;;;;;;;2.92;1.88;;;15.10;55.40;;;;;;5014049;28;20421;-72
2022/04/27 06:14:10;;;;;;;2.50;1.90;;;;;;;;;;5031821;28;20122;-71
2022/04/27 06:16:37;;;;;;;2.10;1.80;;;15.90;55.70;;;;;;5014541;28;20049;-72
2022/04/27 06:19:05;;;;;;;2.30;1.80;;;15.20;55.10;;;;;;5031727;28;20049;-72
2022/04/27 06:21:33;;;;;;;2.45;2.00;;;;;;;;;;5030870;28;20049;-72
2022/04/27 06:24:00;;;;;;;2.00;1.80;;;15.00;55.00;;;;;;5014372;28;20045;-72
2022/04/27 06:26:27;;;;;;;2.92;2.05;;;15.30;55.10;;;;;;5014207;28;20116;-72
2022/04/27 06:28:53;;;;;;;3.33;2.08;;;15.80;55.50;;;;;;5031736;28;20053;-72
2022/04/27 06:31:20;;;;;;;2.50;2.00;;;;;;;;;;5013797;28;20494;-72
2022/04/27 06:33:47;;;;;;;3.28;1.90;;;15.60;55.60;;;;;;5031702;28;20080;-71
2022/04/27 06:36:15;;;;;;;2.45;1.80;;;15.10;55.10;;;;;;5013913;28;20064;-72
2022/04/27 06:38:42;;;;;;;2.33;1.90;;;15.60;55.60;;;;;;5031610;28;20402;-72
2022/04/27 06:41:09;;;;;;;3.60;1.80;;;;;;;;;;5013427;28;20053;-71
2022/04/27 06:43:35;;;;;;;2.55;1.83;;;15.70;55.60;;;;;;5014257;28;20077;-72
2022/04/27 06:46:02;;;;;;;3.13;1.85;;;15.80;55.40;;;;;;5013986;28;20061;-71
2022/04/27 06:48:30;;;;;;;2.10;1.80;;;15.40;52.20;;;;;;5013842;28;20079;-72
2022/04/27 06:50:56;;;;;;;2.60;1.80;;;15.80;55.60;;;;;;5013873;28;20057;-72
2022/04/27 06:53:24;;;;;;;2.22;1.80;;;15.70;53.70;;;;;;5013625;28;20585;-71
2022/04/27 06:55:51;;;;;;;2.78;1.90;;;15.60;52.40;;;;;;5013730;28;20053;-72
2022/04/27 06:58:18;;;;;;;2.83;1.60;;;15.70;55.30;;;;;;5031371;28;20046;-72
2022/04/27 07:00:44;;;;;;;2.15;1.70;;;14.90;54.90;;;;;;5013797;28;20487;-72
2022/04/27 07:03:11;;;;;;;3.17;2.00;;;;;;;;;;5014034;28;20059;-72
2022/04/27 07:05:38;;;;;;;2.35;1.70;;;15.80;55.60;;;;;;5035063;28;20099;-72
2022/04/27 07:08:06;;;;;;;1.80;1.60;;;15.90;55.80;;;;;;5017469;28;20136;-72
2022/04/27 07:10:36;;;;;;;2.40;1.80;;;15.70;55.50;;;;;;5017113;28;20096;-72
2022/04/27 07:13:04;;;;;;;1.98;1.65;;;15.40;55.30;;;;;;5035130;28;20053;-72
2022/04/27 07:15:31;;;;;;;2.30;1.75;;;15.70;55.60;;;;;;5014988;28;20530;-70
2022/04/27 07:17:58;;;;;;;2.88;2.10;;;;;;;;;;5013654;28;20406;-71
2022/04/27 07:20:24;;;;;;;8.23;2.58;;;15.70;55.40;;;;;;5013825;28;20482;-70
2022/04/27 07:22:51;;;;;;;3.65;2.45;;;;;;;;;;5015479;28;20049;-71
2022/04/27 07:25:19;;;;;;;2.85;2.20;;;15.80;55.40;;;;;;5016308;28;20049;-71
2022/04/27 07:27:47;;;;;;;3.78;1.92;;;15.70;48.80;;;;;;5034612;28;20049;-71
2022/04/27 07:30:14;;;;;;;2.75;1.98;;;;;;;;;;5034421;28;20057;-71
2022/04/27 07:32:40;;;;;;;2.45;1.80;;;15.30;55.40;;;;;;5017164;28;20068;-72
2022/04/27 07:35:08;;;;;;;3.65;1.98;;;15.80;55.40;;;;;;5016645;28;20049;-72
2022/04/27 07:37:37;;;;;;;2.50;1.75;;;15.30;55.10;;;;;;5016837;28;20057;-72
2022/04/27 07:40:04;;;;;;;2.65;1.88;;;16.60;55.80;;;;;;5016279;28;20064;-72
2022/04/27 07:42:31;;;;;;;2.25;1.90;;;15.90;55.40;;;;;;5016475;28;20406;-72
2022/04/27 07:44:59;;;;;;;2.50;1.90;;;16.00;55.60;;;;;;5016517;28;20063;-72
2022/04/27 07:47:26;;;;;;;2.30;1.70;;;15.80;55.50;;;;;;5034188;28;20054;-72
2022/04/27 07:49:52;;;;;;;2.70;1.70;;;15.90;51.80;;;;;;5016509;28;20483;-72
2022/04/27 07:52:19;;;;;;;2.67;1.75;;;16.80;55.80;;;;;;5016186;28;20052;-72
2022/04/27 07:54:46;;;;;;;3.20;1.70;;;16.00;55.40;;;;;;5034087;28;20048;-72
2022/04/27 07:57:13;;;;;;;2.55;1.80;;;;;;;;;;5023645;28;20545;-72
2022/04/27 07:59:39;;;;;;;1.65;1.55;;;16.10;55.00;;;;;;5035870;28;20477;-72
2022/04/27 08:02:07;;;;;;;1.60;1.40;;;16.10;55.00;;;;;;5021912;28;20049;-72
2022/04/27 08:04:35;;;;;;;2.78;1.65;;;;;;;;;;5016363;28;20120;-72
2022/04/27 08:07:01;;;;;;;1.75;1.38;;;16.20;55.20;;;;;;5016444;28;20409;-72
2022/04/27 08:09:28;;;;;;;2.92;1.58;;;15.60;54.70;;;;;;5015908;28;20050;-72
2022/04/27 08:11:55;;;;;;;5.25;2.17;;;;;;;;;;5016095;28;20065;-72
2022/04/27 08:14:22;;;;;;;2.20;1.65;;;15.60;54.60;;;;;;5047975;28;20048;-72
2022/04/27 08:16:48;;;;;;;2.90;1.70;;;15.40;54.20;;;;;;5024296;28;20541;-72
2022/04/27 08:19:17;;;;;;;3.22;1.60;;;16.30;51.20;;;;;;5015316;28;20045;-72
2022/04/27 08:21:44;;;;;;;3.40;1.63;;;16.40;54.90;;;;;;5032859;28;20048;-72
2022/04/27 08:24:11;;;;;;;2.47;1.55;;;15.40;54.10;;;;;;5014829;28;20076;-72
2022/04/27 08:26:38;;;;;;;2.28;1.67;;;16.40;54.80;;;;;;5015472;28;20073;-71
2022/04/27 08:29:05;;;;;;;2.05;1.40;;;15.50;54.30;;;;;;5034643;28;20045;-72
2022/04/27 08:31:32;;;;;;;2.30;1.52;;;;;;;;;;5018448;28;20405;-72
2022/04/27 08:33:58;;;;;;;2.45;1.65;;;16.30;54.70;;;;;;5018451;28;20084;-72
2022/04/27 08:36:26;;;;;;;3.00;1.83;;;16.40;48.10;;;;;;5015161;28;20490;-71
2022/04/27 08:38:53;;;;;;;2.67;1.80;;;15.70;54.10;;;;;;5016106;28;20053;-71
2022/04/27 08:41:20;;;;;;;4.25;1.75;;;16.50;54.70;;;;;;5012496;28;20059;-71
2022/04/27 08:43:47;;;;;;;2.22;1.50;;;16.30;54.20;;;;;;5015043;28;20084;-72
2022/04/27 08:46:14;;;;;;;2.97;1.60;;;;;;;;;;5015203;28;20046;-71
2022/04/27 08:48:41;;;;;;;4.25;1.77;;;16.90;54.60;;;;;;5033164;28;20080;-72
2022/04/27 08:51:08;;;;;;;3.05;1.70;;;;;;;;;;5015079;28;20152;-71
2022/04/27 08:53:36;;;;;;;2.35;1.60;;;16.80;54.40;;;;;;5015535;28;20057;-70
2022/04/27 08:56:03;;;;;;;2.53;1.60;;;16.80;54.00;;;;;;5030008;28;20413;-71
2022/04/27 08:58:30;;;;;;;5.03;1.60;;;;;;;;;;5013511;28;20053;-71
2022/04/27 09:00:59;;;;;;;3.15;1.70;;;16.80;54.20;;;;;;5013266;28;20155;-72
2022/04/27 09:03:27;;;;;;;3.78;1.80;;;16.70;47.70;;;;;;5014111;28;20492;-72
2022/04/27 09:05:55;;;;;;;4.55;1.80;;;16.50;49.10;;;;;;5014248;28;20049;-71
2022/04/27 09:08:21;;;;;;;3.70;1.70;;;17.00;54.20;;;;;;5014577;28;20079;-71
2022/04/27 09:10:49;;;;;;;2.80;1.60;;;16.00;47.80;;;;;;5014347;28;20076;-71
2022/04/27 09:13:17;;;;;;;3.78;1.70;;;;;;;;;;5014611;28;20057;-71
2022/04/27 09:15:43;;;;;;;2.47;1.60;;;16.50;53.70;;;;;;5014553;28;20057;-72
2022/04/27 09:21:01;;;;;;;3.65;1.63;;;17.10;54.00;;;;;;5014977;28;20057;-71
2022/04/27 09:23:28;;;;;;;3.60;1.42;;;16.90;54.20;;;;;;5032444;28;20049;-71
2022/04/27 09:25:57;;;;;;;2.70;1.58;;;16.00;48.90;;;;;;5014495;28;20064;-71
2022/04/27 09:28:24;;;;;;;4.07;2.15;;;17.20;53.90;;;;;;5014813;28;20060;-71
2022/04/27 09:30:51;;;;;;;2.22;1.45;;;16.70;53.70;;;;;;5013924;28;20049;-71
2022/04/27 09:33:31;;;;;;;2.05;1.40;;;15.90;53.40;;;;;;5006140;28;20057;-72
2022/04/27 09:35:58;;;;;;;6.43;1.52;;;17.00;53.80;;;;;;5014525;28;20057;-71
2022/04/27 09:38:26;;;;;;;2.47;1.55;;;16.80;54.00;;;;;;5014843;28;20053;-71
2022/04/27 09:40:54;;;;;;;2.13;1.50;;;17.10;54.10;;;;;;5014389;28;20430;-71
2022/04/27 09:43:42;;;;;;;1.95;1.30;;;16.90;53.90;;;;;;5014844;28;20443;-71
2022/04/27 09:46:16;;;;;;;2.22;1.50;;;16.90;47.40;;;;;;5014259;28;20072;-71
2022/04/27 09:48:46;;;;;;;2.55;1.40;;;;;;;;;;5013963;28;20057;-71
2022/04/27 09:51:13;;;;;;;1.88;1.30;;;16.90;53.80;;;;;;5014178;28;20085;-71
2022/04/27 09:53:41;;;;;;;2.50;1.50;;;17.40;53.80;;;;;;5014705;28;20409;-71
2022/04/27 09:56:07;;;;;;;2.10;1.38;;;16.90;54.00;;;;;;5032198;28;20053;-71
2022/04/27 09:58:36;;;;;;;3.00;1.38;;;16.90;53.80;;;;;;5014606;28;20059;-71
2022/04/27 10:01:04;;;;;;;2.17;1.58;;;17.10;53.40;;;;;;5013859;28;20050;-71
2022/04/27 10:03:31;;;;;;;2.28;1.38;;;16.80;53.60;;;;;;5014027;28;20053;-71
2022/04/27 10:05:59;;;;;;;2.70;1.50;;;16.90;52.40;;;;;;5014198;28;20160;-71
2022/04/27 10:08:26;;;;;;;2.58;1.45;;;16.10;48.90;;;;;;5031772;28;20071;-71
2022/04/27 10:10:52;;;;;;;2.83;1.40;;;16.90;53.30;;;;;;5031587;28;20136;-71
2022/04/27 10:13:19;;;;;;;2.05;1.50;;;17.70;54.10;;;;;;5031402;28;20049;-71
2022/04/27 10:15:47;;;;;;;2.00;1.50;;;17.00;53.60;;;;;;5031725;28;20056;-71
2022/04/27 10:18:15;;;;;;;2.70;1.50;;;17.10;53.70;;;;;;5031783;28;20045;-71
2022/04/27 10:20:42;;;;;;;2.17;1.33;;;15.80;52.80;;;;;;5030829;28;20054;-71
2022/04/27 10:23:32;;;;;;;3.17;1.40;;;16.90;53.80;;;;;;5031649;28;20042;-71
2022/04/27 10:26:10;;;;;;;2.10;1.50;;;16.90;53.90;;;;;;4999630;28;20411;-71
2022/04/27 10:28:40;;;;;;;1.60;1.40;;;16.20;53.40;;;;;;5014057;28;20127;-71
2022/04/27 10:31:08;;;;;;;1.58;1.17;;;16.40;53.20;;;;;;5013976;28;20076;-71
2022/04/27 10:33:42;;;;;;;2.47;1.40;;;17.00;53.90;;;;;;5014118;28;20088;-71
2022/04/27 10:36:21;;;;;;;1.77;1.30;;;16.00;52.90;;;;;;5013892;28;20057;-71
2022/04/27 10:39:21;;;;;;;2.25;1.48;;;17.00;53.90;;;;;;5015883;28;20061;-71
2022/04/27 10:42:16;;;;;;;2.53;1.48;;;16.80;47.30;;;;;;5017571;28;20046;-71
2022/04/27 10:45:06;;;;;;;2.33;1.65;;;17.60;54.30;;;;;;5017833;28;20549;-71
2022/04/27 10:47:38;;;;;;;2.55;1.50;;;16.50;48.40;;;;;;5017623;28;20053;-71
2022/04/27 10:50:19;;;;;;;2.75;1.30;;;16.90;51.10;;;;;;5017516;28;20058;-71
2022/04/27 10:52:50;;;;;;;3.53;1.40;;;16.80;53.80;;;;;;5016499;28;20064;-71
2022/04/27 10:55:42;;;;;;;1.67;1.20;;;17.20;53.90;;;;;;5017699;28;20084;-71
2022/04/27 10:58:13;;;;;;;1.48;1.17;;;16.30;47.60;;;;;;5017432;28;20049;-71
2022/04/27 11:01:24;;;;;;;2.55;1.30;;;16.70;53.40;;;;;;5034756;28;20057;-72
2022/04/27 11:04:06;;;;;;;1.80;1.40;;;17.00;53.70;;;;;;5017099;28;20059;-71
2022/04/27 11:07:25;;;;;;;2.30;1.30;;;17.10;53.50;;;;;;5017140;28;20063;-71
2022/04/27 11:10:11;;;;;;;2.63;1.30;;;17.80;53.90;;;;;;4997695;28;20054;-71
2022/04/27 11:12:38;;;;;;;1.50;1.20;;;17.80;54.10;;;;;;4997828;28;20050;-71
2022/04/27 11:15:06;;;;;;;2.50;1.35;;;17.50;53.40;;;;;;4997712;28;20075;-71
2022/04/27 11:17:34;;;;;;;2.25;1.30;;;;;;;;;;4997710;28;20054;-71
2022/04/27 11:20:03;;;;;;;2.92;1.63;;;17.20;53.20;;;;;;4997391;28;20137;-71
2022/04/27 11:22:36;;;;;;;2.30;1.45;;;16.80;52.90;;;;;;5018042;28;20060;-71
2022/04/27 11:25:05;;;;;;;1.30;1.20;;;17.30;53.50;;;;;;5017043;28;20057;-71
2022/04/27 11:27:33;;;;;;;2.55;1.63;;;17.80;53.60;;;;;;5017063;28;20449;-71
2022/04/27 11:30:00;;;;;;;2.47;1.30;;;17.10;52.90;;;;;;5016636;28;20045;-71
2022/04/27 11:32:28;;;;;;;1.40;1.30;;;17.30;53.30;;;;;;5016444;28;20061;-71
2022/04/27 11:34:55;;;;;;;1.65;1.30;;;17.30;53.00;;;;;;5016521;28;20053;-70
2022/04/27 11:37:23;;;;;;;2.28;1.40;;;17.20;53.00;;;;;;5016919;28;20053;-71
2022/04/27 11:39:50;;;;;;;2.08;1.30;;;17.30;53.20;;;;;;5033874;28;20046;-71
2022/04/27 11:42:17;;;;;;;1.67;1.35;;;17.30;52.90;;;;;;5034296;28;20054;-71
2022/04/27 11:44:44;;;;;;;1.83;1.30;;;17.30;53.00;;;;;;5015901;28;20056;-71
2022/04/27 11:47:28;;;;;;;1.48;1.30;;;17.00;53.10;;;;;;5015290;28;20146;-71
2022/04/27 11:49:56;;;;;;;1.58;1.30;;;17.40;53.40;;;;;;5014553;28;20037;-71
2022/04/27 11:52:24;;;;;;;2.05;1.40;;;17.40;53.40;;;;;;5015246;28;20057;-71
2022/04/27 11:54:51;;;;;;;2.17;1.30;;;17.40;53.10;;;;;;5033303;28;20124;-71
2022/04/27 11:57:21;;;;;;;1.88;1.63;;;18.10;53.10;;;;;;4999649;28;20402;-71
2022/04/27 11:59:48;;;;;;;1.63;1.40;;;17.40;53.20;;;;;;5011521;28;20042;-71
2022/04/27 12:02:15;;;;;;;1.70;1.40;;;;;;;;;;5013315;28;20056;-71
2022/04/27 12:04:42;;;;;;;1.70;1.20;;;17.30;52.80;;;;;;5010689;28;20458;-71
2022/04/27 12:07:12;;;;;;;1.50;1.20;;;17.70;51.20;;;;;;5016088;28;20490;-71
2022/04/27 12:09:40;;;;;;;1.50;1.20;;;17.80;53.10;;;;;;5015422;28;20569;-71
2022/04/27 12:12:09;;;;;;;1.77;1.50;;;16.70;52.70;;;;;;5033641;28;20057;-71
2022/04/27 12:14:37;;;;;;;1.98;1.40;;;;;;;;;;5012758;28;20049;-71
2022/04/27 12:17:06;;;;;;;1.85;1.30;;;17.10;52.90;;;;;;5015625;28;20045;-71
2022/04/27 12:19:34;;;;;;;2.22;1.30;;;16.50;52.60;;;;;;5033084;28;20141;-72
2022/04/27 12:22:13;;;;;;;2.17;1.25;;;17.80;53.30;;;;;;5015605;28;20560;-71
2022/04/27 12:24:45;;;;;;;2.67;1.40;;;17.30;52.90;;;;;;5015472;28;20061;-71
2022/04/27 12:27:19;;;;;;;1.73;1.25;;;17.90;53.10;;;;;;5016116;28;20137;-71
2022/04/27 12:29:46;;;;;;;1.88;1.52;;;17.30;49.90;;;;;;5011515;28;20076;-71
2022/04/27 12:32:12;;;;;;;1.95;1.25;;;17.30;53.00;;;;;;5012676;28;20053;-71
2022/04/27 12:37:32;;;;;;;1.98;1.30;;;18.00;53.50;;;;;;5012959;28;20045;-72
2022/04/27 12:40:14;;;;;;;2.05;1.30;;;17.50;53.00;;;;;;5013530;28;20170;-71
2022/04/27 12:42:59;;;;;;;1.25;1.15;;;17.20;52.80;;;;;;5012405;28;20061;-71
2022/04/27 12:45:25;;;;;;;3.00;1.63;;;17.30;53.00;;;;;;5014200;28;20521;-71
2022/04/27 12:47:52;;;;;;;3.25;1.30;;;17.20;52.60;;;;;;5012484;28;20075;-71
2022/04/27 12:50:19;;;;;;;2.78;1.50;;;17.20;52.70;;;;;;5032641;28;20068;-70
2022/04/27 12:52:47;;;;;;;1.25;1.05;;;;;;;;;;5015798;28;20045;-71
2022/04/27 12:55:15;;;;;;;1.98;1.40;;;17.70;52.90;;;;;;5012164;28;20053;-69
2022/04/27 12:57:43;;;;;;;3.75;1.80;;;17.40;51.40;;;;;;5013185;28;20506;-70
2022/04/27 13:00:11;;;;;;;2.38;1.30;;;17.30;46.80;;;;;;5014012;28;20061;-70
2022/04/27 13:02:37;;;;;;;1.98;1.40;;;17.30;52.90;;;;;;5031866;28;20041;-70
2022/04/27 13:05:05;;;;;;;4.68;1.48;;;17.30;46.70;;;;;;5014615;28;20049;-70
2022/04/27 13:07:31;;;;;;;2.40;1.40;;;17.30;53.10;;;;;;5011856;28;20049;-70
2022/04/27 13:12:44;;;;;;;1.95;1.30;;;17.60;52.80;;;;;;5015179;28;20049;-70
2022/04/27 13:15:11;;;;;;;2.50;1.45;;;17.20;52.90;;;;;;5014594;28;20060;-71
2022/04/27 13:17:38;;;;;;;5.88;1.67;;;17.30;52.60;;;;;;5014805;28;20065;-71
2022/04/27 13:20:08;;;;;;;2.45;1.50;;;17.50;53.10;;;;;;5014480;28;20556;-72
2022/04/27 13:22:35;;;;;;;3.17;1.40;;;17.80;53.20;;;;;;5015172;28;20057;-71
2022/04/27 13:25:02;;;;;;;3.17;1.58;;;17.20;52.70;;;;;;5032086;28;20417;-70
2022/04/27 13:27:29;;;;;;;2.40;1.48;;;16.60;47.70;;;;;;5014888;28;20053;-70
2022/04/27 13:29:57;;;;;;;3.00;1.65;;;16.70;52.90;;;;;;5029451;28;20045;-70
2022/04/27 13:32:24;;;;;;;1.90;1.23;;;17.50;53.30;;;;;;5027346;28;20052;-70